sensor_id;sensor_type;location;lat;lon;timestamp;pressure;altitude;pressure_sealevel;temperature;humidity
59274;BME280;45044;41.572;24.730;2023-04-02T00:08:56;90416.56;;;3.41;100.00
59274;BME280;45044;41.572;24.730;2023-04-02T00:11:35;90438.41;;;3.63;100.00
59274;BME280;45044;41.572;24.730;2023-04-02T00:14:14;90419.75;;;3.57;100.00
59274;BME280;45044;41.572;24.730;2023-04-02T00:16:42;90441.50;;;3.73;100.00
59274;BME280;45044;41.572;24.730;2023-04-02T00:19:22;90431.69;;;3.35;100.00
59274;BME280;45044;41.572;24.730;2023-04-02T00:21:50;90429.31;;;3.50;100.00
59274;BME280;45044;41.572;24.730;2023-04-02T00:24:20;90442.94;;;3.70;100.00
59274;BME280;45044;41.572;24.730;2023-04-02T00:26:51;90442.00;;;3.55;100.00
59274;BME280;45044;41.572;24.730;2023-04-02T00:29:19;90438.81;;;3.65;100.00
59274;BME280;45044;41.572;24.730;2023-04-02T00:31:50;90454.38;;;3.38;100.00
59274;BME280;45044;41.572;24.730;2023-04-02T00:34:24;90445.59;;;3.46;100.00
59274;BME280;45044;41.572;24.730;2023-04-02T00:36:52;90457.22;;;3.56;100.00
59274;BME280;45044;41.572;24.730;2023-04-02T00:39:25;90426.00;;;3.53;100.00
59274;BME280;45044;41.572;24.730;2023-04-02T00:42:01;90448.06;;;3.63;100.00
59274;BME280;45044;41.572;24.730;2023-04-02T00:44:35;90443.22;;;3.61;100.00
59274;BME280;45044;41.572;24.730;2023-04-02T00:49:42;90436.00;;;3.51;100.00
59274;BME280;45044;41.572;24.730;2023-04-02T00:52:16;90441.84;;;3.44;100.00
59274;BME280;45044;41.572;24.730;2023-04-02T00:54:48;90433.63;;;2.91;100.00
59274;BME280;45044;41.572;24.730;2023-04-02T00:57:19;90449.56;;;2.90;100.00
59274;BME280;45044;41.572;24.730;2023-04-02T01:00:38;90459.00;;;2.78;100.00
59274;BME280;45044;41.572;24.730;2023-04-02T01:05:39;90464.84;;;2.95;100.00
59274;BME280;45044;41.572;24.730;2023-04-02T01:08:28;90461.91;;;2.96;100.00
59274;BME280;45044;41.572;24.730;2023-04-02T01:11:08;90459.88;;;3.09;100.00
59274;BME280;45044;41.572;24.730;2023-04-02T01:17:00;90455.28;;;2.99;100.00
59274;BME280;45044;41.572;24.730;2023-04-02T01:22:46;90456.63;;;2.69;100.00
59274;BME280;45044;41.572;24.730;2023-04-02T01:30:36;90443.97;;;2.87;100.00
59274;BME280;45044;41.572;24.730;2023-04-02T01:33:04;90439.16;;;2.66;100.00
59274;BME280;45044;41.572;24.730;2023-04-02T01:35:35;90447.59;;;2.83;100.00
59274;BME280;45044;41.572;24.730;2023-04-02T01:38:42;90441.47;;;2.71;100.00
59274;BME280;45044;41.572;24.730;2023-04-02T01:41:28;90440.16;;;2.81;100.00
59274;BME280;45044;41.572;24.730;2023-04-02T01:44:06;90446.22;;;2.89;100.00
59274;BME280;45044;41.572;24.730;2023-04-02T01:46:39;90449.53;;;2.66;100.00
59274;BME280;45044;41.572;24.730;2023-04-02T01:49:24;90450.00;;;2.48;100.00
59274;BME280;45044;41.572;24.730;2023-04-02T01:51:53;90448.47;;;2.47;100.00
59274;BME280;45044;41.572;24.730;2023-04-02T01:54:22;90444.66;;;2.41;100.00
59274;BME280;45044;41.572;24.730;2023-04-02T01:56:51;90439.88;;;2.43;100.00
59274;BME280;45044;41.572;24.730;2023-04-02T01:59:20;90441.09;;;2.49;100.00
59274;BME280;45044;41.572;24.730;2023-04-02T02:04:19;90439.09;;;2.62;100.00
59274;BME280;45044;41.572;24.730;2023-04-02T02:06:46;90448.31;;;2.80;100.00
59274;BME280;45044;41.572;24.730;2023-04-02T02:09:20;90441.31;;;2.84;100.00
59274;BME280;45044;41.572;24.730;2023-04-02T02:11:49;90445.13;;;2.90;100.00
59274;BME280;45044;41.572;24.730;2023-04-02T02:14:19;90449.69;;;2.97;100.00
59274;BME280;45044;41.572;24.730;2023-04-02T02:16:47;90449.22;;;2.91;100.00
59274;BME280;45044;41.572;24.730;2023-04-02T02:19:31;90447.78;;;2.94;100.00
59274;BME280;45044;41.572;24.730;2023-04-02T02:22:27;90437.88;;;2.99;100.00
59274;BME280;45044;41.572;24.730;2023-04-02T02:24:56;90444.94;;;3.03;100.00
59274;BME280;45044;41.572;24.730;2023-04-02T02:30:19;90438.94;;;2.75;100.00
59274;BME280;45044;41.572;24.730;2023-04-02T02:35:29;90434.84;;;2.74;100.00
59274;BME280;45044;41.572;24.730;2023-04-02T02:40:53;90444.66;;;2.41;100.00
59274;BME280;45044;41.572;24.730;2023-04-02T02:43:23;90435.38;;;2.60;100.00
59274;BME280;45044;41.572;24.730;2023-04-02T02:45:53;90441.09;;;2.49;100.00
59274;BME280;45044;41.572;24.730;2023-04-02T02:48:29;90436.84;;;2.61;100.00
59274;BME280;45044;41.572;24.730;2023-04-02T02:50:58;90430.53;;;2.38;100.00
59274;BME280;45044;41.572;24.730;2023-04-02T02:53:29;90437.84;;;1.93;100.00
59274;BME280;45044;41.572;24.730;2023-04-02T02:55:58;90441.81;;;2.07;100.00
59274;BME280;45044;41.572;24.730;2023-04-02T02:58:29;90456.69;;;2.30;100.00
59274;BME280;45044;41.572;24.730;2023-04-02T03:00:57;90444.94;;;2.36;100.00
59274;BME280;45044;41.572;24.730;2023-04-02T03:03:26;90456.00;;;2.53;100.00
59274;BME280;45044;41.572;24.730;2023-04-02T03:05:58;90444.22;;;2.59;100.00
59274;BME280;45044;41.572;24.730;2023-04-02T03:08:32;90448.13;;;2.69;100.00
59274;BME280;45044;41.572;24.730;2023-04-02T03:13:56;90452.66;;;2.12;100.00
59274;BME280;45044;41.572;24.730;2023-04-02T03:16:39;90466.22;;;2.06;100.00
59274;BME280;45044;41.572;24.730;2023-04-02T03:19:37;90469.44;;;2.19;100.00
59274;BME280;45044;41.572;24.730;2023-04-02T03:22:13;90476.56;;;2.42;100.00
59274;BME280;45044;41.572;24.730;2023-04-02T03:28:03;90487.78;;;2.69;100.00
59274;BME280;45044;41.572;24.730;2023-04-02T03:30:39;90472.03;;;2.82;100.00
59274;BME280;45044;41.572;24.730;2023-04-02T03:33:13;90496.97;;;2.63;100.00
59274;BME280;45044;41.572;24.730;2023-04-02T03:38:35;90507.34;;;2.23;100.00
59274;BME280;45044;41.572;24.730;2023-04-02T03:41:32;90508.41;;;2.42;100.00
59274;BME280;45044;41.572;24.730;2023-04-02T03:44:18;90508.56;;;2.30;100.00
59274;BME280;45044;41.572;24.730;2023-04-02T03:46:53;90479.34;;;2.33;100.00
59274;BME280;45044;41.572;24.730;2023-04-02T03:49:35;90510.31;;;2.25;100.00
59274;BME280;45044;41.572;24.730;2023-04-02T03:52:15;90516.31;;;2.10;100.00
59274;BME280;45044;41.572;24.730;2023-04-02T03:54:45;90521.13;;;2.27;100.00
59274;BME280;45044;41.572;24.730;2023-04-02T04:00:24;90535.88;;;2.63;100.00
59274;BME280;45044;41.572;24.730;2023-04-02T04:03:02;90517.03;;;2.46;100.00
59274;BME280;45044;41.572;24.730;2023-04-02T04:05:35;90527.19;;;2.55;100.00
59274;BME280;45044;41.572;24.730;2023-04-02T04:08:07;90540.66;;;2.61;100.00
59274;BME280;45044;41.572;24.730;2023-04-02T04:10:39;90540.53;;;2.54;100.00
59274;BME280;45044;41.572;24.730;2023-04-02T04:13:12;90536.09;;;2.34;100.00
59274;BME280;45044;41.572;24.730;2023-04-02T04:16:32;90546.53;;;2.38;100.00
59274;BME280;45044;41.572;24.730;2023-04-02T04:18:45;90556.56;;;2.59;100.00
59274;BME280;45044;41.572;24.730;2023-04-02T04:21:22;90559.44;;;2.74;100.00
59274;BME280;45044;41.572;24.730;2023-04-02T04:24:00;90557.78;;;2.85;100.00
59274;BME280;45044;41.572;24.730;2023-04-02T04:26:42;90569.41;;;2.52;100.00
59274;BME280;45044;41.572;24.730;2023-04-02T04:32:39;90568.25;;;2.49;100.00
59274;BME280;45044;41.572;24.730;2023-04-02T04:35:23;90562.28;;;2.29;100.00
59274;BME280;45044;41.572;24.730;2023-04-02T04:37:58;90561.63;;;2.52;100.00
59274;BME280;45044;41.572;24.730;2023-04-02T04:40:32;90558.06;;;2.60;100.00
59274;BME280;45044;41.572;24.730;2023-04-02T04:43:03;90557.47;;;2.67;100.00
59274;BME280;45044;41.572;24.730;2023-04-02T04:45:53;90553.28;;;2.62;100.00
59274;BME280;45044;41.572;24.730;2023-04-02T04:48:24;90553.22;;;2.59;100.00
59274;BME280;45044;41.572;24.730;2023-04-02T04:50:56;90553.22;;;2.79;100.00
59274;BME280;45044;41.572;24.730;2023-04-02T04:53:26;90542.47;;;3.00;100.00
59274;BME280;45044;41.572;24.730;2023-04-02T04:55:55;90553.03;;;3.11;100.00
59274;BME280;45044;41.572;24.730;2023-04-02T04:58:44;90547.69;;;3.23;100.00
59274;BME280;45044;41.572;24.730;2023-04-02T05:01:18;90548.38;;;3.20;100.00
59274;BME280;45044;41.572;24.730;2023-04-02T05:04:08;90545.44;;;2.79;100.00
59274;BME280;45044;41.572;24.730;2023-04-02T05:06:42;90552.53;;;2.62;100.00
59274;BME280;45044;41.572;24.730;2023-04-02T05:09:33;90551.69;;;2.97;100.00
59274;BME280;45044;41.572;24.730;2023-04-02T05:12:30;90553.44;;;3.13;100.00
59274;BME280;45044;41.572;24.730;2023-04-02T05:18:18;90557.72;;;2.82;100.00
59274;BME280;45044;41.572;24.730;2023-04-02T05:20:56;90560.69;;;3.04;100.00
59274;BME280;45044;41.572;24.730;2023-04-02T05:23:28;90567.59;;;3.16;100.00
59274;BME280;45044;41.572;24.730;2023-04-02T05:34:01;90579.03;;;3.34;100.00
59274;BME280;45044;41.572;24.730;2023-04-02T05:36:29;90577.72;;;3.44;100.00
59274;BME280;45044;41.572;24.730;2023-04-02T05:38:57;90571.03;;;3.67;100.00
59274;BME280;45044;41.572;24.730;2023-04-02T05:41:26;90578.81;;;3.90;100.00
59274;BME280;45044;41.572;24.730;2023-04-02T05:44:02;90570.09;;;4.06;100.00
59274;BME280;45044;41.572;24.730;2023-04-02T05:46:35;90572.19;;;4.24;100.00
59274;BME280;45044;41.572;24.730;2023-04-02T05:49:06;90566.47;;;4.38;100.00
59274;BME280;45044;41.572;24.730;2023-04-02T05:51:40;90563.13;;;4.72;100.00
59274;BME280;45044;41.572;24.730;2023-04-02T05:54:20;90562.47;;;4.48;100.00
59274;BME280;45044;41.572;24.730;2023-04-02T05:56:53;90571.38;;;4.77;100.00
59274;BME280;45044;41.572;24.730;2023-04-02T05:59:35;90558.22;;;5.35;100.00
59274;BME280;45044;41.572;24.730;2023-04-02T06:13:27;90563.72;;;6.21;100.00
59274;BME280;45044;41.572;24.730;2023-04-02T06:15:54;90552.34;;;5.95;100.00
59274;BME280;45044;41.572;24.730;2023-04-02T06:18:27;90559.25;;;6.21;100.00
59274;BME280;45044;41.572;24.730;2023-04-02T06:20:57;90557.78;;;6.24;100.00
59274;BME280;45044;41.572;24.730;2023-04-02T06:23:44;90566.53;;;6.54;100.00
59274;BME280;45044;41.572;24.730;2023-04-02T06:26:46;90573.06;;;7.07;100.00
59274;BME280;45044;41.572;24.730;2023-04-02T06:31:57;90584.78;;;7.72;100.00
59274;BME280;45044;41.572;24.730;2023-04-02T06:34:27;90580.28;;;8.24;100.00
59274;BME280;45044;41.572;24.730;2023-04-02T06:37:01;90583.38;;;9.34;100.00
59274;BME280;45044;41.572;24.730;2023-04-02T06:39:29;90578.28;;;10.22;100.00
59274;BME280;45044;41.572;24.730;2023-04-02T06:42:11;90585.84;;;10.62;100.00
59274;BME280;45044;41.572;24.730;2023-04-02T06:44:39;90562.16;;;9.70;100.00
59274;BME280;45044;41.572;24.730;2023-04-02T06:47:34;90587.88;;;9.98;100.00
59274;BME280;45044;41.572;24.730;2023-04-02T06:50:52;90591.34;;;9.80;100.00
59274;BME280;45044;41.572;24.730;2023-04-02T06:53:01;90582.88;;;8.64;100.00
59274;BME280;45044;41.572;24.730;2023-04-02T06:55:42;90597.13;;;8.63;100.00
59274;BME280;45044;41.572;24.730;2023-04-02T06:58:09;90596.00;;;8.17;100.00
59274;BME280;45044;41.572;24.730;2023-04-02T07:00:44;90590.41;;;7.93;100.00
59274;BME280;45044;41.572;24.730;2023-04-02T07:03:27;90592.66;;;8.01;100.00
59274;BME280;45044;41.572;24.730;2023-04-02T07:05:56;90581.03;;;8.43;100.00
59274;BME280;45044;41.572;24.730;2023-04-02T07:08:23;90578.78;;;8.56;100.00
59274;BME280;45044;41.572;24.730;2023-04-02T07:10:50;90592.63;;;8.38;100.00
59274;BME280;45044;41.572;24.730;2023-04-02T07:13:20;90586.63;;;8.48;100.00
59274;BME280;45044;41.572;24.730;2023-04-02T07:15:51;90596.34;;;8.66;100.00
59274;BME280;45044;41.572;24.730;2023-04-02T07:18:27;90596.00;;;8.60;100.00
59274;BME280;45044;41.572;24.730;2023-04-02T07:20:54;90604.50;;;9.01;100.00
59274;BME280;45044;41.572;24.730;2023-04-02T07:23:22;90597.06;;;8.85;100.00
59274;BME280;45044;41.572;24.730;2023-04-02T07:25:50;90586.34;;;9.36;100.00
59274;BME280;45044;41.572;24.730;2023-04-02T07:28:18;90590.56;;;9.15;100.00
59274;BME280;45044;41.572;24.730;2023-04-02T07:30:47;90597.28;;;9.23;100.00
59274;BME280;45044;41.572;24.730;2023-04-02T07:33:17;90587.06;;;9.44;100.00
59274;BME280;45044;41.572;24.730;2023-04-02T07:35:44;90583.31;;;9.49;100.00
59274;BME280;45044;41.572;24.730;2023-04-02T07:38:11;90590.38;;;9.55;100.00
59274;BME280;45044;41.572;24.730;2023-04-02T07:40:38;90592.84;;;9.85;100.00
59274;BME280;45044;41.572;24.730;2023-04-02T07:43:05;90585.84;;;10.16;100.00
59274;BME280;45044;41.572;24.730;2023-04-02T07:45:32;90591.16;;;10.55;100.00
59274;BME280;45044;41.572;24.730;2023-04-02T07:48:08;90586.75;;;10.83;100.00
59274;BME280;45044;41.572;24.730;2023-04-02T07:50:35;90588.66;;;11.18;100.00
59274;BME280;45044;41.572;24.730;2023-04-02T07:53:03;90583.25;;;10.97;100.00
59274;BME280;45044;41.572;24.730;2023-04-02T07:55:29;90581.72;;;11.31;100.00
59274;BME280;45044;41.572;24.730;2023-04-02T07:57:58;90572.47;;;11.47;100.00
59274;BME280;45044;41.572;24.730;2023-04-02T08:00:26;90588.69;;;12.01;100.00
59274;BME280;45044;41.572;24.730;2023-04-02T08:02:54;90567.78;;;11.90;100.00
59274;BME280;45044;41.572;24.730;2023-04-02T08:05:21;90590.25;;;12.70;100.00
59274;BME280;45044;41.572;24.730;2023-04-02T08:07:53;90585.06;;;12.18;97.55
59274;BME280;45044;41.572;24.730;2023-04-02T08:10:20;90582.19;;;12.57;95.98
59274;BME280;45044;41.572;24.730;2023-04-02T08:12:47;90585.94;;;12.80;100.00
59274;BME280;45044;41.572;24.730;2023-04-02T08:15:15;90575.16;;;13.52;90.55
59274;BME280;45044;41.572;24.730;2023-04-02T08:17:43;90575.06;;;14.26;84.74
59274;BME280;45044;41.572;24.730;2023-04-02T08:20:17;90574.66;;;14.44;81.38
59274;BME280;45044;41.572;24.730;2023-04-02T08:22:46;90566.28;;;14.92;79.30
59274;BME280;45044;41.572;24.730;2023-04-02T08:25:13;90571.66;;;16.00;65.86
59274;BME280;45044;41.572;24.730;2023-04-02T08:27:40;90567.41;;;16.29;62.63
59274;BME280;45044;41.572;24.730;2023-04-02T08:30:09;90561.50;;;17.18;58.92
59274;BME280;45044;41.572;24.730;2023-04-02T08:32:38;90569.31;;;16.99;60.31
59274;BME280;45044;41.572;24.730;2023-04-02T08:35:08;90559.03;;;17.56;57.46
59274;BME280;45044;41.572;24.730;2023-04-02T08:37:36;90567.97;;;17.40;53.37
59274;BME280;45044;41.572;24.730;2023-04-02T08:40:03;90566.97;;;17.02;55.75
59274;BME280;45044;41.572;24.730;2023-04-02T08:47:50;90561.03;;;19.13;48.48
59274;BME280;45044;41.572;24.730;2023-04-02T08:52:50;90565.59;;;16.39;48.92
59274;BME280;45044;41.572;24.730;2023-04-02T08:55:19;90565.50;;;17.77;48.23
59274;BME280;45044;41.572;24.730;2023-04-02T09:00:43;90565.69;;;15.96;42.45
59274;BME280;45044;41.572;24.730;2023-04-02T09:03:19;90563.16;;;16.32;46.35
59274;BME280;45044;41.572;24.730;2023-04-02T09:05:48;90545.88;;;15.49;43.57
59274;BME280;45044;41.572;24.730;2023-04-02T09:08:18;90550.72;;;15.24;39.75
59274;BME280;45044;41.572;24.730;2023-04-02T09:13:33;90575.56;;;15.83;43.80
59274;BME280;45044;41.572;24.730;2023-04-02T09:18:31;90583.03;;;15.32;43.95
59274;BME280;45044;41.572;24.730;2023-04-02T09:23:47;90569.59;;;15.39;43.37
59274;BME280;45044;41.572;24.730;2023-04-02T09:26:28;90568.69;;;16.60;40.24
59274;BME280;45044;41.572;24.730;2023-04-02T09:31:54;90550.78;;;18.46;38.89
59274;BME280;45044;41.572;24.730;2023-04-02T09:34:29;90555.06;;;18.52;37.45
59274;BME280;45044;41.572;24.730;2023-04-02T09:36:56;90544.03;;;19.72;40.20
59274;BME280;45044;41.572;24.730;2023-04-02T09:39:32;90548.59;;;19.00;36.74
59274;BME280;45044;41.572;24.730;2023-04-02T09:42:06;90542.16;;;16.95;38.08
59274;BME280;45044;41.572;24.730;2023-04-02T09:44:34;90544.50;;;15.83;41.41
59274;BME280;45044;41.572;24.730;2023-04-02T09:47:04;90549.16;;;14.67;41.42
59274;BME280;45044;41.572;24.730;2023-04-02T09:49:33;90540.78;;;14.39;40.72
59274;BME280;45044;41.572;24.730;2023-04-02T09:52:07;90542.19;;;14.10;42.03
59274;BME280;45044;41.572;24.730;2023-04-02T09:54:34;90538.50;;;15.01;43.79
59274;BME280;45044;41.572;24.730;2023-04-02T09:57:23;90542.72;;;15.41;42.32
59274;BME280;45044;41.572;24.730;2023-04-02T10:03:28;90540.16;;;14.65;43.52
59274;BME280;45044;41.572;24.730;2023-04-02T10:06:10;90531.50;;;15.07;43.43
59274;BME280;45044;41.572;24.730;2023-04-02T10:08:40;90531.97;;;15.18;41.55
59274;BME280;45044;41.572;24.730;2023-04-02T10:11:12;90532.41;;;15.56;42.00
59274;BME280;45044;41.572;24.730;2023-04-02T10:16:35;90521.41;;;15.97;40.25
59274;BME280;45044;41.572;24.730;2023-04-02T10:21:42;90524.91;;;15.54;39.98
59274;BME280;45044;41.572;24.730;2023-04-02T10:24:12;90511.00;;;15.89;39.37
59274;BME280;45044;41.572;24.730;2023-04-02T10:26:52;90505.78;;;16.60;38.15
59274;BME280;45044;41.572;24.730;2023-04-02T10:29:43;90507.47;;;17.12;40.50
59274;BME280;45044;41.572;24.730;2023-04-02T10:32:22;90521.47;;;17.12;39.63
59274;BME280;45044;41.572;24.730;2023-04-02T10:35:00;90520.94;;;16.37;36.42
59274;BME280;45044;41.572;24.730;2023-04-02T10:46:52;90492.59;;;16.34;38.30
59274;BME280;45044;41.572;24.730;2023-04-02T10:52:09;90492.78;;;15.91;40.25
59274;BME280;45044;41.572;24.730;2023-04-02T10:57:18;90494.00;;;17.06;44.65
59274;BME280;45044;41.572;24.730;2023-04-02T11:08:59;90500.19;;;16.23;39.38
59274;BME280;45044;41.572;24.730;2023-04-02T11:16:01;90489.59;;;15.97;40.91
59274;BME280;45044;41.572;24.730;2023-04-02T11:18:31;90485.09;;;16.20;40.12
59274;BME280;45044;41.572;24.730;2023-04-02T11:24:46;90474.53;;;17.73;38.56
59274;BME280;45044;41.572;24.730;2023-04-02T11:37:34;90484.50;;;16.15;40.39
59274;BME280;45044;41.572;24.730;2023-04-02T11:42:43;90491.31;;;16.39;40.87
59274;BME280;45044;41.572;24.730;2023-04-02T11:53:19;90489.75;;;14.25;44.35
59274;BME280;45044;41.572;24.730;2023-04-02T12:09:50;90493.81;;;14.43;44.09
59274;BME280;45044;41.572;24.730;2023-04-02T12:12:27;90497.63;;;14.42;44.25
59274;BME280;45044;41.572;24.730;2023-04-02T12:14:58;90494.06;;;14.03;45.62
59274;BME280;45044;41.572;24.730;2023-04-02T12:17:37;90494.06;;;14.19;46.73
59274;BME280;45044;41.572;24.730;2023-04-02T12:22:38;90484.97;;;14.80;46.88
59274;BME280;45044;41.572;24.730;2023-04-02T12:25:30;90490.97;;;15.23;47.61
59274;BME280;45044;41.572;24.730;2023-04-02T12:28:16;90490.63;;;14.95;46.64
59274;BME280;45044;41.572;24.730;2023-04-02T12:30:48;90491.69;;;14.97;43.35
59274;BME280;45044;41.572;24.730;2023-04-02T12:33:33;90487.44;;;14.87;44.19
59274;BME280;45044;41.572;24.730;2023-04-02T12:36:04;90488.94;;;14.88;45.96
59274;BME280;45044;41.572;24.730;2023-04-02T12:38:41;90487.94;;;15.51;47.45
59274;BME280;45044;41.572;24.730;2023-04-02T12:41:21;90493.34;;;15.47;44.32
59274;BME280;45044;41.572;24.730;2023-04-02T12:44:16;90476.03;;;15.95;46.08
59274;BME280;45044;41.572;24.730;2023-04-02T12:46:44;90477.25;;;16.29;45.63
59274;BME280;45044;41.572;24.730;2023-04-02T12:51:54;90479.09;;;16.19;43.41
59274;BME280;45044;41.572;24.730;2023-04-02T12:54:22;90454.13;;;15.55;43.69
59274;BME280;45044;41.572;24.730;2023-04-02T12:56:49;90471.03;;;15.97;43.74
59274;BME280;45044;41.572;24.730;2023-04-02T12:59:29;90463.22;;;16.06;41.45
59274;BME280;45044;41.572;24.730;2023-04-02T13:01:58;90492.06;;;15.26;43.19
59274;BME280;45044;41.572;24.730;2023-04-02T13:04:26;90491.69;;;14.97;43.93
59274;BME280;45044;41.572;24.730;2023-04-02T13:06:53;90487.63;;;14.50;45.98
59274;BME280;45044;41.572;24.730;2023-04-02T13:09:32;90477.78;;;14.51;45.82
59274;BME280;45044;41.572;24.730;2023-04-02T13:12:00;90480.47;;;14.64;46.26
59274;BME280;45044;41.572;24.730;2023-04-02T13:14:28;90471.19;;;14.72;47.02
59274;BME280;45044;41.572;24.730;2023-04-02T13:16:55;90470.53;;;14.68;46.13
59274;BME280;45044;41.572;24.730;2023-04-02T13:19:25;90466.63;;;14.72;46.18
59274;BME280;45044;41.572;24.730;2023-04-02T13:21:54;90468.00;;;15.20;47.95
59274;BME280;45044;41.572;24.730;2023-04-02T13:24:29;90466.28;;;14.57;45.80
59274;BME280;45044;41.572;24.730;2023-04-02T13:27:01;90462.47;;;14.29;45.73
59274;BME280;45044;41.572;24.730;2023-04-02T13:29:33;90468.22;;;14.40;47.86
59274;BME280;45044;41.572;24.730;2023-04-02T13:32:04;90461.19;;;14.50;48.09
59274;BME280;45044;41.572;24.730;2023-04-02T13:34:35;90465.44;;;14.31;48.49
59274;BME280;45044;41.572;24.730;2023-04-02T13:37:01;90469.16;;;13.70;47.64
59274;BME280;45044;41.572;24.730;2023-04-02T13:39:28;90463.22;;;13.66;47.91
59274;BME280;45044;41.572;24.730;2023-04-02T13:41:57;90466.03;;;13.59;48.62
59274;BME280;45044;41.572;24.730;2023-04-02T13:44:30;90463.88;;;13.70;48.03
59274;BME280;45044;41.572;24.730;2023-04-02T13:46:57;90458.78;;;14.26;48.32
59274;BME280;45044;41.572;24.730;2023-04-02T13:49:25;90452.56;;;14.33;46.99
59274;BME280;45044;41.572;24.730;2023-04-02T13:51:54;90452.88;;;14.65;47.65
59274;BME280;45044;41.572;24.730;2023-04-02T13:54:32;90450.97;;;15.08;48.88
59274;BME280;45044;41.572;24.730;2023-04-02T13:57:04;90456.38;;;15.17;46.66
59274;BME280;45044;41.572;24.730;2023-04-02T13:59:31;90457.19;;;15.14;48.34
59274;BME280;45044;41.572;24.730;2023-04-02T14:02:05;90459.88;;;14.71;46.97
59274;BME280;45044;41.572;24.730;2023-04-02T14:04:41;90455.63;;;14.31;49.64
59274;BME280;45044;41.572;24.730;2023-04-02T14:07:20;90461.28;;;14.46;48.50
59274;BME280;45044;41.572;24.730;2023-04-02T14:17:47;90454.38;;;13.89;50.08
59274;BME280;45044;41.572;24.730;2023-04-02T14:28:18;90443.25;;;14.71;47.89
59274;BME280;45044;41.572;24.730;2023-04-02T14:31:29;90458.25;;;14.61;49.60
59274;BME280;45044;41.572;24.730;2023-04-02T14:37:26;90454.31;;;14.23;49.05
59274;BME280;45044;41.572;24.730;2023-04-02T14:40:43;90458.91;;;13.89;49.22
59274;BME280;45044;41.572;24.730;2023-04-02T14:45:59;90459.88;;;14.12;51.08
59274;BME280;45044;41.572;24.730;2023-04-02T14:48:45;90456.50;;;13.95;51.11
59274;BME280;45044;41.572;24.730;2023-04-02T14:51:33;90464.44;;;13.78;49.60
59274;BME280;45044;41.572;24.730;2023-04-02T14:54:10;90465.34;;;13.71;52.35
59274;BME280;45044;41.572;24.730;2023-04-02T14:57:09;90467.94;;;13.38;50.80
59274;BME280;45044;41.572;24.730;2023-04-02T14:59:55;90477.81;;;13.17;51.26
59274;BME280;45044;41.572;24.730;2023-04-02T15:02:41;90472.13;;;13.56;53.06
59274;BME280;45044;41.572;24.730;2023-04-02T15:05:19;90477.34;;;13.59;53.14
59274;BME280;45044;41.572;24.730;2023-04-02T15:07:58;90477.59;;;13.28;52.29
59274;BME280;45044;41.572;24.730;2023-04-02T15:13:16;90484.44;;;13.25;53.91
59274;BME280;45044;41.572;24.730;2023-04-02T15:15:49;90484.56;;;13.18;53.74
59274;BME280;45044;41.572;24.730;2023-04-02T15:18:18;90496.66;;;13.36;55.09
59274;BME280;45044;41.572;24.730;2023-04-02T15:26:28;90514.31;;;13.02;54.52
59274;BME280;45044;41.572;24.730;2023-04-02T15:29:12;90510.47;;;13.07;58.33
59274;BME280;45044;41.572;24.730;2023-04-02T15:32:03;90509.59;;;12.93;58.26
59274;BME280;45044;41.572;24.730;2023-04-02T15:34:45;90517.63;;;12.86;60.62
59274;BME280;45044;41.572;24.730;2023-04-02T15:43:33;90521.47;;;12.61;64.04
59274;BME280;45044;41.572;24.730;2023-04-02T15:46:20;90525.00;;;12.54;63.81
59274;BME280;45044;41.572;24.730;2023-04-02T15:49:09;90512.41;;;12.41;61.40
59274;BME280;45044;41.572;24.730;2023-04-02T15:51:55;90515.84;;;12.38;60.46
59274;BME280;45044;41.572;24.730;2023-04-02T16:00:25;90520.66;;;12.43;64.87
59274;BME280;45044;41.572;24.730;2023-04-02T16:09:13;90523.66;;;12.21;61.85
59274;BME280;45044;41.572;24.730;2023-04-02T16:11:45;90525.16;;;12.23;64.72
59274;BME280;45044;41.572;24.730;2023-04-02T16:16:49;90529.13;;;12.07;70.16
59274;BME280;45044;41.572;24.730;2023-04-02T16:19:29;90528.84;;;12.01;67.22
59274;BME280;45044;41.572;24.730;2023-04-02T16:22:23;90532.72;;;11.93;69.04
59274;BME280;45044;41.572;24.730;2023-04-02T16:27:45;90530.31;;;11.78;68.16
59274;BME280;45044;41.572;24.730;2023-04-02T16:38:57;90537.97;;;11.69;74.39
59274;BME280;45044;41.572;24.730;2023-04-02T16:47:09;90553.69;;;11.48;75.07
59274;BME280;45044;41.572;24.730;2023-04-02T16:49:49;90556.91;;;11.60;75.63
59274;BME280;45044;41.572;24.730;2023-04-02T16:55:28;90552.50;;;11.53;75.27
59274;BME280;45044;41.572;24.730;2023-04-02T16:58:18;90552.88;;;11.52;76.64
59274;BME280;45044;41.572;24.730;2023-04-02T17:00:52;90560.53;;;11.42;78.55
59274;BME280;45044;41.572;24.730;2023-04-02T17:03:49;90568.88;;;11.37;85.92
59274;BME280;45044;41.572;24.730;2023-04-02T17:06:39;90564.34;;;11.06;84.10
59274;BME280;45044;41.572;24.730;2023-04-02T17:09:14;90565.25;;;11.23;95.62
59274;BME280;45044;41.572;24.730;2023-04-02T17:14:33;90529.81;;;10.69;91.73
59274;BME280;45044;41.572;24.730;2023-04-02T17:17:04;90558.25;;;10.78;98.38
59274;BME280;45044;41.572;24.730;2023-04-02T17:19:42;90568.09;;;10.74;100.00
59274;BME280;45044;41.572;24.730;2023-04-02T17:22:19;90578.84;;;10.48;100.00
59274;BME280;45044;41.572;24.730;2023-04-02T17:24:55;90580.84;;;10.29;100.00
59274;BME280;45044;41.572;24.730;2023-04-02T17:30:02;90590.44;;;10.05;100.00
59274;BME280;45044;41.572;24.730;2023-04-02T17:32:31;90595.34;;;10.03;100.00
59274;BME280;45044;41.572;24.730;2023-04-02T17:35:15;90598.41;;;9.94;100.00
59274;BME280;45044;41.572;24.730;2023-04-02T17:40:50;90603.41;;;9.74;100.00
59274;BME280;45044;41.572;24.730;2023-04-02T17:43:40;90609.78;;;9.69;100.00
59274;BME280;45044;41.572;24.730;2023-04-02T17:49:41;90614.78;;;9.52;100.00
59274;BME280;45044;41.572;24.730;2023-04-02T17:52:30;90615.88;;;9.51;100.00